createdAt,value
2022-11-22T00:04:03.654Z,13.98
2022-11-22T00:12:11.538Z,15.25
2022-11-22T00:20:17.946Z,16.17
2022-11-22T00:28:25.885Z,14.95
2022-11-22T00:36:31.236Z,15.38
2022-11-22T00:44:39.241Z,18.05
2022-11-22T00:52:44.506Z,17.00
2022-11-22T01:00:56.627Z,13.20
2022-11-22T01:09:02.324Z,14.23
2022-11-22T01:17:10.295Z,13.35
2022-11-22T01:25:15.702Z,13.50
2022-11-22T01:33:23.813Z,12.95
2022-11-22T01:41:29.277Z,13.00
2022-11-22T01:49:42.375Z,13.15
2022-11-22T01:57:49.361Z,11.93
2022-11-22T02:05:58.077Z,12.40
2022-11-22T02:14:03.374Z,13.45
2022-11-22T02:22:20.028Z,13.25
2022-11-22T02:30:28.476Z,14.00
2022-11-22T02:38:36.748Z,15.85
2022-11-22T02:46:53.665Z,14.25
2022-11-22T02:54:58.924Z,14.00
2022-11-22T03:03:07.105Z,13.23
2022-11-22T03:11:12.319Z,12.57
2022-11-22T03:19:20.534Z,13.20
2022-11-22T03:27:25.996Z,12.27
2022-11-22T03:35:33.831Z,12.90
2022-11-22T03:43:39.255Z,13.27
2022-11-22T03:51:47.245Z,15.02
2022-11-22T03:59:52.690Z,14.75
2022-11-22T04:08:00.700Z,13.45
2022-11-22T04:16:05.949Z,14.52
2022-11-22T04:24:27.414Z,13.73
2022-11-22T04:32:45.075Z,15.40
2022-11-22T04:40:53.358Z,13.60
2022-11-22T04:48:58.604Z,16.30
2022-11-22T04:57:06.560Z,12.93
2022-11-22T05:05:12.703Z,13.18
2022-11-22T05:13:20.721Z,11.13
2022-11-22T05:21:25.952Z,9.25
2022-11-22T05:29:33.987Z,9.90
2022-11-22T05:37:39.393Z,10.70
2022-11-22T05:45:47.269Z,12.23
2022-11-22T05:53:52.684Z,10.32
2022-11-22T06:02:00.584Z,11.90
2022-11-22T06:10:06.011Z,9.40
2022-11-22T06:18:13.914Z,9.15
2022-11-22T06:26:22.270Z,9.35
2022-11-22T06:34:30.134Z,14.15
2022-11-22T06:42:35.392Z,17.08
2022-11-22T06:50:43.348Z,16.83
2022-11-22T06:58:49.602Z,13.55
2022-11-22T07:06:57.476Z,11.05
2022-11-22T07:15:02.775Z,11.10
2022-11-22T07:23:12.665Z,8.75
2022-11-22T07:31:19.267Z,8.50
2022-11-22T07:39:27.390Z,11.05
2022-11-22T07:47:33.025Z,9.10
2022-11-22T07:55:40.991Z,11.82
2022-11-22T08:03:46.965Z,10.55
2022-11-22T08:11:54.890Z,9.65
2022-11-22T08:20:00.494Z,8.30
2022-11-22T08:28:08.564Z,7.63
2022-11-22T08:36:14.683Z,6.43
2022-11-22T08:44:22.673Z,5.28
2022-11-22T08:52:34.642Z,5.03
2022-11-22T09:00:43.079Z,5.03
2022-11-22T09:08:57.499Z,3.63
2022-11-22T09:17:18.247Z,3.53
2022-11-22T09:25:24.103Z,3.63
2022-11-22T09:33:32.632Z,4.63
2022-11-22T09:42:05.327Z,5.00
2022-11-22T09:50:21.817Z,5.47
2022-11-22T09:58:33.575Z,4.70
2022-11-22T10:06:43.825Z,4.00
2022-11-22T10:14:55.668Z,6.15
2022-11-22T10:23:04.900Z,6.38
2022-11-22T10:31:15.248Z,5.32
2022-11-22T10:39:45.419Z,3.70
2022-11-22T10:48:04.312Z,3.55
2022-11-22T10:56:18.587Z,3.30
2022-11-22T11:04:27.732Z,2.50
2022-11-22T11:12:44.145Z,2.20
2022-11-22T11:20:51.587Z,1.70
2022-11-22T11:29:37.429Z,2.17
2022-11-22T11:37:46.057Z,1.92
2022-11-22T11:45:51.875Z,2.35
2022-11-22T11:54:06.482Z,1.83
2022-11-22T12:02:16.431Z,1.80
2022-11-22T12:10:41.051Z,2.70
2022-11-22T12:18:53.242Z,2.40
2022-11-22T12:27:01.434Z,2.50
2022-11-22T12:35:15.400Z,3.08
2022-11-22T12:43:27.076Z,2.80
2022-11-22T12:51:42.986Z,2.55
2022-11-22T13:00:01.695Z,2.53
2022-11-22T13:08:18.200Z,2.47
2022-11-22T13:16:26.118Z,1.70
2022-11-22T13:24:41.262Z,2.45
2022-11-22T13:32:53.151Z,4.32
2022-11-22T13:40:58.584Z,3.75
2022-11-22T13:49:37.510Z,3.50
2022-11-22T13:57:45.589Z,3.83
2022-11-22T14:05:55.500Z,2.58
2022-11-22T14:14:09.763Z,3.10
2022-11-22T14:22:31.027Z,3.55
2022-11-22T14:30:43.516Z,3.17
2022-11-22T14:38:51.408Z,3.40
2022-11-22T14:47:00.796Z,4.13
2022-11-22T14:55:14.927Z,2.42
2022-11-22T15:03:44.443Z,3.97
2022-11-22T15:12:11.872Z,4.25
2022-11-22T16:03:25.517Z,4.60
2022-11-22T16:11:33.358Z,5.00
2022-11-22T16:19:41.321Z,4.55
2022-11-22T16:27:49.632Z,4.00
2022-11-22T16:36:01.915Z,3.03
2022-11-22T16:44:14.510Z,2.33
2022-11-22T16:52:22.455Z,2.00
2022-11-22T17:00:27.747Z,1.90
2022-11-22T17:08:35.882Z,2.25
2022-11-22T17:16:41.123Z,1.60
2022-11-22T17:24:49.036Z,1.52
2022-11-22T17:32:54.253Z,1.88
2022-11-22T17:41:04.650Z,2.35
2022-11-22T17:49:15.675Z,2.30
2022-11-22T17:57:24.364Z,1.85
2022-11-22T18:05:29.646Z,1.95
2022-11-22T18:13:40.107Z,2.17
2022-11-22T18:21:45.531Z,2.08
2022-11-22T18:29:53.566Z,2.20
2022-11-22T18:37:59.031Z,2.17
2022-11-22T18:46:08.564Z,2.17
2022-11-22T18:54:14.386Z,2.20
2022-11-22T19:02:25.899Z,2.35
2022-11-22T19:10:31.220Z,1.88
2022-11-22T19:18:43.083Z,1.50
2022-11-22T19:26:48.815Z,1.80
2022-11-22T19:34:56.847Z,1.20
2022-11-22T19:43:03.458Z,2.47
2022-11-22T19:51:13.802Z,1.00
2022-11-22T19:59:19.065Z,1.10
2022-11-22T20:07:27.374Z,1.00
2022-11-22T20:15:35.099Z,1.10
2022-11-22T20:23:45.691Z,0.70
2022-11-22T20:31:52.302Z,0.70
2022-11-22T20:40:00.194Z,0.63
2022-11-22T20:48:05.477Z,1.27
2022-11-22T20:56:14.175Z,1.17
2022-11-22T21:04:19.538Z,0.82
2022-11-22T21:12:27.686Z,0.65
2022-11-22T21:20:33.178Z,0.88
2022-11-22T21:28:41.267Z,0.90
2022-11-22T21:36:46.582Z,1.30
2022-11-22T21:44:54.443Z,1.20
2022-11-22T21:52:59.678Z,2.08
2022-11-22T22:01:13.625Z,0.90
2022-11-22T22:09:19.458Z,0.90
2022-11-22T22:17:27.325Z,0.90
2022-11-22T22:25:33.469Z,0.90
2022-11-22T22:33:43.345Z,0.80
2022-11-22T22:41:48.649Z,0.80
2022-11-22T22:49:56.552Z,0.50
2022-11-22T22:58:03.211Z,0.60
2022-11-22T23:06:15.234Z,1.20
2022-11-22T23:14:22.823Z,0.70
2022-11-22T23:22:33.106Z,0.82
2022-11-22T23:30:40.272Z,0.70
2022-11-22T23:38:48.622Z,0.80
2022-11-22T23:46:53.883Z,1.00
2022-11-22T23:55:01.781Z,0.50
